Time;durP1;ratioP1;P1;durP2;ratioP2;P2;SDS_P1;SDS_P2;PMS_P1;PMS_P2;Temp;Humidity;BMP_temperature;BMP_pressure;BME280_temperature;BME280_humidity;BME280_pressure;Samples;Min_cycle;Max_cycle;Signal;HPM_P1;HPM_P2
2021/07/22 00:00:09;;;;;;;14.82;7.30;;;;;;;16.62;73.30;100994.63;5085247;28;20020;-66
2021/07/22 00:02:34;;;;;;;12.07;7.00;;;;;;;16.58;73.81;100981.59;5085170;28;20028;-67
2021/07/22 00:05:00;;;;;;;14.32;7.47;;;;;;;16.61;73.35;100985.94;5085227;28;20085;-66
2021/07/22 00:07:25;;;;;;;9.57;6.53;;;;;;;16.60;73.57;100985.06;5085372;28;20048;-66
2021/07/22 00:09:51;;;;;;;16.65;6.88;;;;;;;16.55;73.74;100979.06;5085215;28;20016;-67
2021/07/22 00:12:16;;;;;;;12.73;6.72;;;;;;;16.57;73.86;100986.88;5085062;28;20042;-66
2021/07/22 00:14:41;;;;;;;11.45;6.95;;;;;;;16.55;73.83;100983.47;5085121;28;20331;-67
2021/07/22 00:17:08;;;;;;;11.52;7.03;;;;;;;16.53;73.94;100982.63;5085142;28;20092;-67
2021/07/22 00:19:34;;;;;;;13.88;6.38;;;;;;;16.52;73.85;100983.53;5085060;28;20035;-66
2021/07/22 00:22:00;;;;;;;13.30;7.00;;;;;;;16.51;73.82;100989.66;5084904;28;20036;-67
2021/07/22 00:24:26;;;;;;;10.25;6.53;;;;;;;16.54;73.52;100986.97;5084986;28;20020;-67
2021/07/22 00:26:51;;;;;;;12.82;6.60;;;;;;;16.50;73.70;100986.19;5084978;28;20029;-67
2021/07/22 00:29:17;;;;;;;12.48;7.20;;;;;;;16.52;73.40;100991.41;5084766;28;20088;-66
2021/07/22 00:31:42;;;;;;;11.60;6.55;;;;;;;16.51;73.54;100985.28;5084612;28;20044;-67
2021/07/22 00:34:07;;;;;;;12.15;6.85;;;;;;;16.47;73.51;100978.38;5084544;28;20028;-66
2021/07/22 00:36:33;;;;;;;9.25;5.85;;;;;;;16.50;73.39;100985.31;5084870;28;20024;-66
2021/07/22 00:38:58;;;;;;;14.25;6.47;;;;;;;16.45;73.75;100983.66;5084752;28;20490;-67
2021/07/22 00:41:24;;;;;;;11.23;6.15;;;;;;;16.43;73.67;100979.34;5084425;28;20036;-66
2021/07/22 00:43:49;;;;;;;10.23;5.75;;;;;;;16.41;74.08;100987.25;5084605;28;20020;-66
2021/07/22 00:46:15;;;;;;;13.98;6.57;;;;;;;16.42;74.04;100985.50;5084358;28;20020;-66
2021/07/22 00:48:41;;;;;;;10.40;6.25;;;;;;;16.42;74.37;100982.88;5084553;28;20028;-67
2021/07/22 00:51:10;;;;;;;10.55;5.97;;;;;;;16.41;73.96;100984.63;5084430;28;20040;-66
2021/07/22 00:53:35;;;;;;;10.05;6.35;;;;;;;16.42;74.16;100980.28;5084261;28;20021;-66
2021/07/22 00:56:02;;;;;;;15.18;6.85;;;;;;;16.44;73.90;100984.56;5083935;28;20042;-66
2021/07/22 00:58:27;;;;;;;14.77;7.63;;;;;;;16.44;73.82;100991.56;5084398;28;20052;-67
2021/07/22 01:00:52;;;;;;;15.32;5.97;;;;;;;16.41;73.73;100979.41;5084053;28;20058;-68
2021/07/22 01:03:19;;;;;;;10.15;6.65;;;;;;;16.40;73.46;100982.06;5084320;28;20088;-67
2021/07/22 01:05:44;;;;;;;11.00;6.18;;;;;;;16.37;73.47;100976.88;5084086;28;20103;-64
2021/07/22 01:08:09;;;;;;;16.25;7.35;;;;;;;16.30;73.14;100976.16;5084218;28;20591;-64
2021/07/22 01:10:35;;;;;;;12.40;7.97;;;;;;;16.26;73.57;100985.88;5083901;28;20405;-64
2021/07/22 01:13:00;;;;;;;13.35;6.85;;;;;;;16.19;73.56;100976.41;5084065;28;20012;-64
2021/07/22 01:15:25;;;;;;;16.80;7.20;;;;;;;16.18;73.69;100982.56;5083930;28;20142;-64
2021/07/22 01:17:51;;;;;;;11.30;7.10;;;;;;;16.15;73.67;100982.63;5083954;28;20021;-64
2021/07/22 01:20:17;;;;;;;12.73;7.15;;;;;;;16.15;74.25;100990.50;5083418;28;20020;-64
2021/07/22 01:22:43;;;;;;;14.00;6.72;;;;;;;16.12;74.25;100983.53;5083712;28;20488;-63
2021/07/22 01:25:10;;;;;;;11.52;7.10;;;;;;;16.15;74.07;100985.25;5083840;28;20021;-64
2021/07/22 01:27:35;;;;;;;12.20;6.90;;;;;;;16.16;74.15;100990.47;5083833;28;20025;-64
2021/07/22 01:30:00;;;;;;;10.82;7.13;;;;;;;16.16;74.00;100984.34;5083151;28;20020;-64
2021/07/22 01:32:26;;;;;;;10.73;7.00;;;;;;;16.15;74.16;100987.88;5083613;28;20035;-64
2021/07/22 01:34:51;;;;;;;12.65;6.68;;;;;;;16.14;74.11;100991.38;5083878;28;20016;-64
2021/07/22 01:37:17;;;;;;;10.07;6.38;;;;;;;16.14;74.29;100988.75;5083777;28;20020;-64
2021/07/22 01:39:42;;;;;;;14.02;7.28;;;;;;;16.10;74.00;100985.34;5083510;28;20040;-64
2021/07/22 01:42:08;;;;;;;13.23;6.68;;;;;;;16.09;73.98;100986.22;5083561;28;20013;-64
2021/07/22 01:44:33;;;;;;;12.73;7.05;;;;;;;16.05;74.10;100990.69;5083024;28;20369;-64
2021/07/22 01:46:59;;;;;;;15.98;6.93;;;;;;;16.03;74.17;100995.09;5083717;28;20036;-64
2021/07/22 01:49:24;;;;;;;14.07;7.70;;;;;;;15.98;74.39;100989.09;5083420;28;20144;-64
2021/07/22 01:51:49;;;;;;;13.20;7.97;;;;;;;15.95;74.64;100996.97;5083452;28;20084;-64
2021/07/22 01:54:15;;;;;;;14.32;7.13;;;;;;;15.95;74.52;100996.97;5083376;28;20013;-65
2021/07/22 01:56:40;;;;;;;10.48;6.70;;;;;;;15.93;74.72;100999.63;5083471;28;20096;-64
2021/07/22 01:59:05;;;;;;;12.93;6.90;;;;;;;15.90;74.77;100991.84;5083488;28;20024;-64
2021/07/22 02:01:31;;;;;;;9.95;6.20;;;;;;;15.90;75.23;100993.59;5083621;28;20080;-64
2021/07/22 02:03:56;;;;;;;10.27;6.30;;;;;;;15.91;75.58;100993.56;5083452;28;20020;-64
2021/07/22 02:06:21;;;;;;;8.82;6.10;;;;;;;15.98;75.50;100996.94;5083389;28;20033;-64
2021/07/22 02:08:47;;;;;;;8.40;5.85;;;;;;;15.99;75.83;100988.19;5083448;28;20070;-64
2021/07/22 02:11:12;;;;;;;13.38;6.32;;;;;;;16.06;75.79;100994.16;5083539;28;20040;-64
2021/07/22 02:13:37;;;;;;;8.70;6.72;;;;;;;16.10;75.79;100993.22;5083387;28;20076;-64
2021/07/22 02:16:10;;;;;;;14.70;6.57;;;;;;;16.08;75.55;100980.16;5083508;28;20046;-64
2021/07/22 02:18:35;;;;;;;12.73;6.72;;;;;;;16.18;75.70;100987.81;5083228;28;20025;-64
2021/07/22 02:21:07;;;;;;;11.52;6.20;;;;;;;16.16;75.33;100955.53;5083324;28;20058;-64
2021/07/22 02:23:34;;;;;;;8.75;6.00;;;;;;;16.26;75.69;100975.41;5083219;28;20104;-64
2021/07/22 02:26:03;;;;;;;12.20;6.38;;;;;;;16.28;75.62;100973.56;5083159;28;20020;-64
2021/07/22 02:28:28;;;;;;;15.52;6.35;;;;;;;16.33;75.57;100982.19;5083204;28;20039;-64
2021/07/22 02:30:54;;;;;;;10.20;6.10;;;;;;;16.32;75.29;100984.84;5083035;28;20024;-64
2021/07/22 02:33:19;;;;;;;10.73;6.50;;;;;;;16.28;74.92;100981.44;5083255;28;20027;-64
2021/07/22 02:35:44;;;;;;;11.02;6.85;;;;;;;16.23;74.98;100981.53;5083062;28;20078;-64
2021/07/22 02:38:10;;;;;;;9.65;6.43;;;;;;;16.20;75.00;100975.50;5083039;28;20025;-64
2021/07/22 02:40:35;;;;;;;12.60;6.80;;;;;;;16.18;74.99;100977.31;5082945;28;20032;-64
2021/07/22 02:43:00;;;;;;;12.38;7.53;;;;;;;16.15;75.25;100991.34;5082937;28;20108;-64
2021/07/22 02:45:26;;;;;;;12.75;8.15;;;;;;;16.12;75.28;100988.78;5082868;28;20028;-64
2021/07/22 02:47:51;;;;;;;15.70;7.32;;;;;;;16.09;75.29;100984.47;5083121;28;20032;-64
2021/07/22 02:50:16;;;;;;;14.07;7.43;;;;;;;16.03;75.66;100983.75;5082768;28;20084;-64
2021/07/22 02:52:41;;;;;;;13.27;7.78;;;;;;;16.05;76.20;100985.47;5082858;28;20123;-64
2021/07/22 02:55:07;;;;;;;15.30;7.70;;;;;;;16.05;76.51;100982.84;5085046;28;20039;-64
2021/07/22 02:57:33;;;;;;;11.05;6.72;;;;;;;16.09;76.42;100979.25;5086287;28;20105;-64
2021/07/22 02:59:59;;;;;;;13.65;7.80;;;;;;;16.13;76.44;100977.44;5086643;28;20103;-64
2021/07/22 03:02:24;;;;;;;12.73;7.30;;;;;;;16.15;76.51;100959.91;5086395;28;20025;-64
2021/07/22 03:04:50;;;;;;;14.32;7.20;;;;;;;16.21;76.49;100969.41;5086356;28;20028;-64
2021/07/22 03:07:15;;;;;;;11.05;6.43;;;;;;;16.26;76.55;100975.41;5086402;28;20028;-64
2021/07/22 03:09:40;;;;;;;12.43;6.47;;;;;;;16.32;76.39;100967.38;5084843;28;20080;-64
2021/07/22 03:12:06;;;;;;;14.35;8.02;;;;;;;16.38;76.33;100968.13;5086608;28;20093;-64
2021/07/22 03:14:32;;;;;;;13.15;6.97;;;;;;;16.42;76.20;100969.78;5086291;28;20066;-64
2021/07/22 03:16:57;;;;;;;9.45;6.60;;;;;;;16.44;76.30;100973.22;5086133;28;20565;-64
2021/07/22 03:19:22;;;;;;;12.18;6.43;;;;;;;16.48;76.58;100970.47;5086220;28;20062;-64
2021/07/22 03:21:48;;;;;;;13.77;6.43;;;;;;;16.66;76.63;100963.06;5086199;28;20035;-64
2021/07/22 03:24:13;;;;;;;9.35;5.50;;;;;;;16.90;76.43;100965.13;5085907;28;20016;-64
2021/07/22 03:26:38;;;;;;;9.98;5.82;;;;;;;17.16;75.99;100960.94;5085996;28;20028;-65
2021/07/22 03:29:03;;;;;;;8.60;5.82;;;;;;;17.43;75.92;100968.97;5086236;28;20024;-64
2021/07/22 03:31:29;;;;;;;10.80;5.47;;;;;;;17.74;75.28;100970.72;5085977;28;20020;-64
2021/07/22 03:33:54;;;;;;;8.85;4.72;;;;;;;18.01;74.52;100976.03;5085964;28;20047;-64
2021/07/22 03:36:20;;;;;;;9.30;4.72;;;;;;;18.28;73.56;100977.88;5085916;28;20028;-64
2021/07/22 03:38:45;;;;;;;9.15;4.63;;;;;;;18.61;72.94;100984.72;5085655;28;20031;-64
2021/07/22 03:41:16;;;;;;;10.70;4.93;;;;;;;18.99;71.84;100971.19;5085800;28;20027;-64
2021/07/22 03:43:43;;;;;;;10.70;4.75;;;;;;;19.42;71.13;100977.59;5085771;28;20020;-64
2021/07/22 03:46:08;;;;;;;8.43;5.07;;;;;;;19.77;69.59;100977.19;5085585;28;20035;-64
2021/07/22 03:48:34;;;;;;;6.45;4.03;;;;;;;20.05;68.23;100981.41;5085683;28;20020;-64
2021/07/22 03:50:59;;;;;;;10.25;5.78;;;;;;;20.33;66.72;100978.59;5085614;28;20066;-65
2021/07/22 03:53:25;;;;;;;5.13;4.03;;;;;;;20.60;64.89;100967.81;5085907;28;20123;-65
2021/07/22 03:55:50;;;;;;;6.55;4.13;;;;;;;20.79;63.34;100966.13;5084070;28;20024;-65
2021/07/22 03:58:15;;;;;;;5.82;3.92;;;;;;;20.95;62.79;100970.78;5084164;28;20036;-65
2021/07/22 04:00:41;;;;;;;6.65;4.30;;;;;;;21.16;61.92;100974.28;5085396;28;20028;-65
2021/07/22 04:03:06;;;;;;;9.02;4.50;;;;;;;21.40;60.76;100979.38;5085720;28;20031;-64
2021/07/22 04:05:32;;;;;;;8.20;4.05;;;;;;;21.74;60.70;100974.31;5085038;28;20035;-64
2021/07/22 04:07:58;;;;;;;10.63;3.95;;;;;;;22.03;59.27;100966.81;5085129;28;20020;-64
2021/07/22 04:10:28;;;;;;;8.52;4.07;;;;;;;22.34;58.24;100971.53;5085185;28;20058;-64
2021/07/22 04:13:00;;;;;;;5.40;3.50;;;;;;;22.64;57.06;100969.19;5085235;28;20031;-64
2021/07/22 04:15:27;;;;;;;6.20;3.60;;;;;;;22.86;55.55;100968.09;5084918;28;20039;-65
2021/07/22 04:17:58;;;;;;;8.60;3.97;;;;;;;23.09;55.03;100968.69;5085180;28;20588;-65
2021/07/22 04:20:25;;;;;;;9.60;4.65;;;;;;;23.44;54.69;100967.78;5083365;28;20108;-65
2021/07/22 04:22:51;;;;;;;6.25;3.63;;;;;;;23.81;52.87;100969.34;5084816;28;20096;-65
2021/07/22 04:25:16;;;;;;;5.72;3.10;;;;;;;24.01;51.76;100966.41;5084855;28;20025;-66
2021/07/22 04:27:42;;;;;;;7.25;3.97;;;;;;;24.13;51.41;100971.97;5084965;28;20021;-65
2021/07/22 04:30:09;;;;;;;7.05;3.78;;;;;;;24.29;51.17;100969.34;5084817;28;20088;-65
2021/07/22 04:32:34;;;;;;;11.02;4.60;;;;;;;24.39;50.03;100964.34;5084942;28;20099;-67
2021/07/22 04:35:01;;;;;;;6.60;3.63;;;;;;;24.55;49.42;100976.72;5084602;28;20035;-66
2021/07/22 04:37:26;;;;;;;7.05;3.95;;;;;;;24.71;49.27;100971.34;5084924;28;20047;-66
2021/07/22 04:39:52;;;;;;;6.72;3.80;;;;;;;25.07;48.88;100963.94;5084593;28;20028;-65
2021/07/22 04:42:17;;;;;;;3.85;3.00;;;;;;;25.36;47.57;100974.56;5084797;28;20063;-66
2021/07/22 04:44:42;;;;;;;5.05;3.83;;;;;;;25.56;47.28;100960.00;5084320;28;20063;-65
2021/07/22 04:47:08;;;;;;;6.80;3.67;;;;;;;25.82;46.31;100954.00;5084659;28;20055;-65
2021/07/22 04:49:33;;;;;;;6.57;3.67;;;;;;;26.13;46.22;100957.34;5084227;28;20444;-66
2021/07/22 04:51:58;;;;;;;5.82;3.78;;;;;;;26.36;45.39;100954.97;5084508;28;20021;-65
2021/07/22 04:54:24;;;;;;;7.97;3.53;;;;;;;26.47;44.03;100955.09;5084364;28;20024;-66
2021/07/22 04:56:50;;;;;;;6.03;3.35;;;;;;;26.54;43.99;100946.69;5084309;28;20104;-65
2021/07/22 04:59:15;;;;;;;6.88;3.63;;;;;;;26.67;43.86;100952.03;5084419;28;20024;-65
2021/07/22 05:01:41;;;;;;;6.43;3.58;;;;;;;26.75;43.51;100951.50;5084358;28;20033;-65
2021/07/22 05:04:15;;;;;;;7.28;4.43;;;;;;;26.87;42.87;100948.00;5084391;28;20036;-65
2021/07/22 05:06:40;;;;;;;5.25;3.40;;;;;;;27.13;42.60;100949.81;5084329;28;20470;-65
2021/07/22 05:09:06;;;;;;;5.88;3.10;;;;;;;27.38;41.65;100959.59;5084261;28;20049;-65
2021/07/22 05:11:31;;;;;;;4.72;3.17;;;;;;;27.54;41.22;100958.53;5084012;28;20025;-65
2021/07/22 05:13:56;;;;;;;8.05;3.45;;;;;;;27.67;40.83;100955.84;5082828;28;20023;-65
2021/07/22 05:16:23;;;;;;;4.43;3.33;;;;;;;27.77;40.89;100958.69;5084022;28;20043;-65
2021/07/22 05:18:50;;;;;;;5.88;3.55;;;;;;;27.93;40.62;100959.25;5083198;28;20029;-65
2021/07/22 05:21:15;;;;;;;6.28;3.25;;;;;;;28.11;39.36;100964.19;5083686;28;20426;-65
2021/07/22 05:23:41;;;;;;;6.38;3.80;;;;;;;28.12;39.85;100957.88;5084022;28;20076;-65
2021/07/22 05:26:10;;;;;;;5.75;3.70;;;;;;;28.27;39.16;100965.72;5083929;28;20043;-65
2021/07/22 05:28:37;;;;;;;10.80;3.80;;;;;;;28.33;39.15;100958.13;5083925;28;20025;-65
2021/07/22 05:31:06;;;;;;;4.30;3.80;;;;;;;28.62;38.88;100950.66;5083524;28;20108;-66
2021/07/22 05:33:31;;;;;;;7.00;3.40;;;;;;;28.66;38.38;100957.50;5083577;28;20046;-66
2021/07/22 05:36:01;;;;;;;5.35;3.25;;;;;;;28.74;38.40;100955.06;5083797;28;20020;-65
2021/07/22 05:38:26;;;;;;;5.63;3.80;;;;;;;29.23;37.83;100957.56;5083910;28;20036;-66
2021/07/22 05:40:52;;;;;;;5.10;3.03;;;;;;;29.51;37.10;100949.13;5083283;28;20012;-66
2021/07/22 05:43:17;;;;;;;5.80;3.85;;;;;;;29.83;36.65;100952.84;5083438;28;20024;-65
2021/07/22 05:45:42;;;;;;;6.03;3.20;;;;;;;29.89;35.26;100947.03;5083731;28;20021;-66
2021/07/22 05:48:08;;;;;;;6.80;3.53;;;;;;;29.73;35.37;100947.44;5083736;28;20029;-65
2021/07/22 05:50:33;;;;;;;5.70;3.38;;;;;;;29.62;35.38;100945.66;5083512;28;20043;-66
2021/07/22 05:52:59;;;;;;;5.00;3.38;;;;;;;29.37;36.10;100947.56;5083470;28;20036;-66
2021/07/22 05:55:28;;;;;;;6.22;3.50;;;;;;;29.26;35.88;100945.78;5083431;28;20021;-66
2021/07/22 05:57:54;;;;;;;6.45;3.90;;;;;;;29.11;36.29;100945.19;5083023;28;20509;-65
2021/07/22 06:00:19;;;;;;;6.68;3.55;;;;;;;29.05;36.78;100938.47;5083176;28;20047;-65
2021/07/22 06:02:44;;;;;;;7.25;3.10;;;;;;;29.15;36.70;100943.97;5083401;28;20223;-64
2021/07/22 06:05:10;;;;;;;6.82;3.75;;;;;;;29.05;36.25;100938.47;5083387;28;20440;-66
2021/07/22 06:07:37;;;;;;;8.88;3.60;;;;;;;28.87;36.22;100941.59;5083461;28;20028;-65
2021/07/22 06:10:03;;;;;;;4.75;3.08;;;;;;;28.62;36.80;100938.19;5083305;28;20028;-66
2021/07/22 06:12:30;;;;;;;5.07;3.40;;;;;;;28.35;37.60;100946.47;5083476;28;20021;-66
2021/07/22 06:14:57;;;;;;;5.10;3.10;;;;;;;28.31;38.08;100940.47;5083503;28;20025;-67
2021/07/22 06:17:22;;;;;;;4.93;3.30;;;;;;;28.75;37.16;100946.09;5083690;28;20020;-67
2021/07/22 06:19:47;;;;;;;8.60;3.65;;;;;;;28.73;36.82;100961.38;5083078;28;20081;-67
2021/07/22 06:22:13;;;;;;;6.65;3.75;;;;;;;28.98;36.75;100958.66;5083334;28;20040;-67
2021/07/22 06:24:38;;;;;;;5.25;3.08;;;;;;;29.19;36.20;100954.28;5083311;28;20021;-66
2021/07/22 06:27:11;;;;;;;7.10;3.20;;;;;;;29.25;36.25;100952.09;5083442;28;20016;-66
2021/07/22 06:29:36;;;;;;;4.38;3.47;;;;;;;29.49;35.68;100945.75;5084610;28;20028;-66
2021/07/22 06:32:02;;;;;;;4.97;3.45;;;;;;;29.74;35.65;100951.81;5086867;28;20112;-66
2021/07/22 06:34:27;;;;;;;6.50;3.42;;;;;;;29.99;35.22;100950.63;5087102;28;20036;-66
2021/07/22 06:36:53;;;;;;;4.78;3.50;;;;;;;30.13;34.67;100948.63;5086985;28;20457;-66
2021/07/22 06:39:18;;;;;;;5.05;3.20;;;;;;;30.32;34.29;100950.66;5087065;28;20102;-67
2021/07/22 06:41:44;;;;;;;6.18;3.67;;;;;;;30.41;33.40;100949.00;5086830;28;20021;-67
2021/07/22 06:44:09;;;;;;;8.80;4.00;;;;;;;30.47;33.78;100955.66;5086900;28;20048;-66
2021/07/22 06:46:34;;;;;;;5.20;3.78;;;;;;;30.34;32.86;100948.66;5086862;28;20021;-67
2021/07/22 06:49:00;;;;;;;6.38;3.28;;;;;;;30.08;33.93;100949.03;5086996;28;20021;-66
2021/07/22 06:51:25;;;;;;;4.28;3.15;;;;;;;30.06;33.69;100949.13;5086892;28;20260;-67
2021/07/22 06:53:52;;;;;;;6.93;3.20;;;;;;;29.94;34.42;100945.66;5086806;28;20024;-66
2021/07/22 06:56:17;;;;;;;5.60;3.20;;;;;;;29.90;34.65;100946.91;5086212;28;20048;-66
2021/07/22 06:58:43;;;;;;;8.07;3.90;;;;;;;30.18;34.57;100944.63;5086632;28;20016;-67
2021/07/22 07:01:08;;;;;;;7.47;3.22;;;;;;;30.63;34.56;100945.34;5086358;28;20048;-66
2021/07/22 07:03:33;;;;;;;9.38;3.55;;;;;;;31.04;33.00;100953.47;5086541;28;20031;-66
2021/07/22 07:05:59;;;;;;;10.88;3.67;;;;;;;31.06;32.07;100944.47;5086435;28;20023;-67
2021/07/22 07:08:24;;;;;;;7.60;3.58;;;;;;;30.92;32.27;100952.72;5086341;28;20047;-70
2021/07/22 07:10:49;;;;;;;6.03;2.95;;;;;;;30.92;32.18;100954.53;5086302;28;20023;-65
2021/07/22 07:13:15;;;;;;;5.82;3.30;;;;;;;30.68;32.60;100945.78;5086343;28;20024;-68
2021/07/22 07:15:40;;;;;;;7.20;3.53;;;;;;;30.55;32.85;100950.50;5086142;28;20048;-64
2021/07/22 07:18:06;;;;;;;7.07;3.20;;;;;;;30.47;32.76;100967.22;5086393;28;20067;-67
2021/07/22 07:20:32;;;;;;;5.30;3.10;;;;;;;30.18;33.25;100954.44;5086358;28;20103;-69
2021/07/22 07:22:57;;;;;;;6.57;3.20;;;;;;;30.22;33.44;100955.91;5086296;28;20020;-69
2021/07/22 07:25:23;;;;;;;9.13;3.67;;;;;;;30.48;33.04;100955.53;5084844;28;20029;-70
2021/07/22 07:27:48;;;;;;;4.47;2.97;;;;;;;30.71;31.56;100946.50;5086189;28;20084;-69
2021/07/22 07:30:13;;;;;;;7.68;3.42;;;;;;;30.49;31.37;100945.66;5086048;28;20027;-69
2021/07/22 07:32:39;;;;;;;6.07;3.25;;;;;;;30.49;31.65;100948.34;5086034;28;20456;-68
2021/07/22 07:35:05;;;;;;;6.15;3.15;;;;;;;30.57;31.17;100955.72;5086186;28;20115;-69
2021/07/22 07:37:31;;;;;;;7.07;3.45;;;;;;;30.52;31.05;100943.59;5085897;28;20042;-69
2021/07/22 07:39:57;;;;;;;7.03;2.75;;;;;;;30.39;30.42;100953.63;5085613;28;20070;-69
2021/07/22 07:42:22;;;;;;;5.05;3.20;;;;;;;30.26;30.59;100953.81;5085015;28;20310;-69
2021/07/22 07:44:48;;;;;;;4.38;2.85;;;;;;;30.30;30.38;100944.56;5085576;28;20021;-68
2021/07/22 07:47:13;;;;;;;5.20;2.53;;;;;;;30.41;30.95;100943.66;5085811;28;20050;-67
2021/07/22 07:49:38;;;;;;;7.03;3.78;;;;;;;30.45;30.36;100949.59;5085553;28;20148;-68
2021/07/22 07:52:04;;;;;;;4.22;2.88;;;;;;;30.14;29.81;100948.50;5085349;28;20032;-68
2021/07/22 07:54:29;;;;;;;6.75;2.70;;;;;;;30.13;30.14;100949.47;5085599;28;20024;-68
2021/07/22 07:56:54;;;;;;;5.88;2.67;;;;;;;30.04;30.18;100947.56;5085205;28;20100;-68
2021/07/22 07:59:20;;;;;;;7.82;3.10;;;;;;;29.96;30.17;100950.03;5085541;28;20035;-68
2021/07/22 08:01:45;;;;;;;8.25;2.72;;;;;;;29.97;29.94;100947.22;5085486;28;20016;-68
2021/07/22 08:04:11;;;;;;;5.60;2.50;;;;;;;30.09;28.93;100956.06;5085495;28;20027;-69
2021/07/22 08:06:39;;;;;;;6.22;2.88;;;;;;;29.97;29.29;100943.72;5085531;28;20024;-69
2021/07/22 08:09:04;;;;;;;10.70;3.70;;;;;;;29.97;29.71;100952.56;5085533;28;20099;-68
2021/07/22 08:11:30;;;;;;;4.72;2.35;;;;;;;30.24;29.50;100959.31;5085429;28;20055;-68
2021/07/22 08:13:55;;;;;;;8.15;2.95;;;;;;;30.51;29.00;100947.22;5085380;28;20048;-67
2021/07/22 08:16:20;;;;;;;6.13;2.60;;;;;;;30.57;28.18;100945.88;5085211;28;20020;-67
2021/07/22 08:18:51;;;;;;;7.53;2.85;;;;;;;30.55;28.51;100942.47;5084970;28;20028;-67
2021/07/22 08:21:17;;;;;;;10.50;4.25;;;;;;;30.72;27.23;100951.72;5084977;28;20539;-67
2021/07/22 08:23:43;;;;;;;10.00;4.50;;;;;;;30.67;27.54;100954.78;5085127;28;20067;-67
2021/07/22 08:26:09;;;;;;;7.30;3.72;;;;;;;30.74;27.55;100956.94;5085119;28;20036;-67
2021/07/22 08:28:35;;;;;;;7.35;3.60;;;;;;;30.86;27.53;100950.56;5085151;28;20021;-67
2021/07/22 08:31:01;;;;;;;8.65;3.22;;;;;;;31.02;26.95;100951.91;5084886;28;20489;-66
2021/07/22 08:33:26;;;;;;;5.75;2.58;;;;;;;31.37;26.90;100950.66;5085116;28;20028;-67
2021/07/22 08:35:51;;;;;;;5.00;2.40;;;;;;;31.73;25.64;100954.66;5084857;28;20388;-66
2021/07/22 08:38:17;;;;;;;7.57;2.75;;;;;;;31.85;26.08;100939.28;5084836;28;20031;-66
2021/07/22 08:40:42;;;;;;;4.18;2.33;;;;;;;31.98;25.89;100944.41;5084585;28;20035;-68
2021/07/22 08:43:08;;;;;;;10.50;2.70;;;;;;;32.17;25.59;100948.94;5084486;28;20072;-67
2021/07/22 08:45:33;;;;;;;4.20;2.60;;;;;;;32.28;25.19;100947.94;5084589;28;20028;-68
2021/07/22 08:47:59;;;;;;;6.03;2.80;;;;;;;32.24;25.20;100954.56;5084741;28;20480;-68
2021/07/22 08:50:25;;;;;;;6.03;3.10;;;;;;;32.24;25.61;100949.19;5084372;28;20031;-67
2021/07/22 08:52:51;;;;;;;7.25;2.72;;;;;;;32.39;25.23;100950.47;5084329;28;20028;-68
2021/07/22 08:55:17;;;;;;;8.25;3.13;;;;;;;32.39;25.57;100953.16;5084469;28;20044;-67
2021/07/22 08:57:43;;;;;;;6.53;3.17;;;;;;;32.49;24.81;100946.91;5083703;28;20037;-67
2021/07/22 09:00:10;;;;;;;9.25;3.08;;;;;;;32.17;24.54;100950.75;5083782;28;20084;-68
2021/07/22 09:02:35;;;;;;;8.05;3.10;;;;;;;31.78;25.23;100950.59;5083951;28;20111;-68
2021/07/22 09:05:03;;;;;;;6.68;3.25;;;;;;;31.27;25.39;100939.00;5084299;28;20062;-67
2021/07/22 09:07:30;;;;;;;5.97;2.40;;;;;;;30.99;25.61;100934.25;5084263;28;20013;-69
2021/07/22 09:10:04;;;;;;;5.65;3.00;;;;;;;30.91;26.45;100942.13;5084006;28;20035;-67
2021/07/22 09:12:48;;;;;;;6.90;3.08;;;;;;;30.69;26.01;100927.88;5083982;28;20020;-65
2021/07/22 09:15:22;;;;;;;9.88;3.35;;;;;;;30.41;27.15;100932.94;5083964;28;20086;-64
2021/07/22 09:17:48;;;;;;;7.15;3.20;;;;;;;30.52;27.76;100935.56;5084072;28;20056;-68
2021/07/22 09:20:25;;;;;;;8.95;2.75;;;;;;;30.78;27.86;100942.31;5083858;28;20032;-68
2021/07/22 09:22:50;;;;;;;6.65;3.22;;;;;;;30.98;28.04;100929.03;5083984;28;20381;-69
2021/07/22 09:25:15;;;;;;;7.80;3.03;;;;;;;31.14;28.03;100941.94;5083733;28;20029;-68
2021/07/22 09:27:42;;;;;;;7.22;3.05;;;;;;;31.15;27.74;100939.09;5083635;28;20095;-71
2021/07/22 09:30:12;;;;;;;6.40;2.60;;;;;;;31.22;27.95;100938.56;5083391;28;20047;-68
2021/07/22 09:32:39;;;;;;;7.03;3.65;;;;;;;31.06;28.55;100928.38;5083957;28;20024;-67
2021/07/22 09:35:10;;;;;;;8.70;3.17;;;;;;;30.80;29.50;100940.38;5083773;28;20021;-68
2021/07/22 09:37:40;;;;;;;8.48;3.20;;;;;;;30.78;28.59;100935.13;5083434;28;20029;-66
2021/07/22 09:40:08;;;;;;;11.20;4.00;;;;;;;30.81;29.22;100931.38;5083619;28;20048;-66
2021/07/22 09:42:45;;;;;;;7.53;3.10;;;;;;;30.84;28.99;100931.09;5083544;28;20032;-66
2021/07/22 09:45:19;;;;;;;9.10;3.50;;;;;;;30.90;28.94;100935.91;5083571;28;20021;-66
2021/07/22 09:47:46;;;;;;;7.30;3.60;;;;;;;30.99;29.02;100930.75;5083574;28;20025;-66
2021/07/22 09:50:16;;;;;;;7.72;2.97;;;;;;;30.99;29.03;100928.06;5083474;28;20021;-66
2021/07/22 09:52:42;;;;;;;10.20;3.28;;;;;;;30.99;29.23;100926.22;5083598;28;20024;-67
2021/07/22 09:55:32;;;;;;;9.13;3.13;;;;;;;30.98;28.83;100932.56;5083419;28;20024;-67
2021/07/22 09:58:03;;;;;;;9.57;3.40;;;;;;;30.92;29.17;100925.06;5078165;28;20045;-66
2021/07/22 10:00:30;;;;;;;9.48;3.33;;;;;;;30.77;29.15;100932.56;5083376;28;20086;-70
2021/07/22 10:02:58;;;;;;;10.80;3.15;;;;;;;30.79;29.45;100930.63;5083326;28;20020;-72
2021/07/22 10:05:28;;;;;;;8.00;2.83;;;;;;;30.87;28.58;100929.97;5088839;28;20058;-71
2021/07/22 10:07:56;;;;;;;11.60;3.13;;;;;;;30.69;28.75;100922.50;5090181;28;20039;-71
2021/07/22 10:10:23;;;;;;;9.38;3.10;;;;;;;30.46;29.83;100927.19;5089778;28;20016;-71
2021/07/22 10:13:00;;;;;;;6.57;3.05;;;;;;;30.29;29.95;100924.09;5089774;28;20017;-71
2021/07/22 10:15:28;;;;;;;11.65;3.30;;;;;;;30.26;30.25;100935.06;5089935;28;20025;-71
2021/07/22 10:17:56;;;;;;;6.93;3.25;;;;;;;30.51;29.95;100928.47;5090033;28;20035;-71
2021/07/22 10:20:32;;;;;;;9.60;3.00;;;;;;;30.53;30.57;100939.06;5089885;28;20166;-71
2021/07/22 10:22:58;;;;;;;10.52;3.67;;;;;;;30.45;30.48;100934.34;5088963;28;20421;-70
2021/07/22 10:25:24;;;;;;;10.80;3.60;;;;;;;30.46;30.36;100938.75;5090013;28;20028;-71
2021/07/22 10:27:53;;;;;;;9.02;3.22;;;;;;;30.64;29.66;100933.63;5090147;28;20111;-71
2021/07/22 10:30:20;;;;;;;11.13;3.30;;;;;;;30.57;29.69;100937.84;5089810;28;20039;-70
2021/07/22 10:32:49;;;;;;;7.50;3.05;;;;;;;30.62;29.25;100932.94;5089437;28;20020;-70
2021/07/22 10:35:20;;;;;;;10.27;3.42;;;;;;;30.48;29.60;100935.94;5089660;28;20028;-70
2021/07/22 10:38:09;;;;;;;;;;;;;;;30.43;29.95;100929.13;5090592;28;20121;-70
2021/07/22 10:40:48;;;;;;;8.35;3.50;;;;;;;30.54;29.01;100928.22;5081745;28;19939;-71
2021/07/22 10:43:34;;;;;;;10.05;3.17;;;;;;;30.41;29.45;100928.44;5089836;28;20052;-70
2021/07/22 10:46:00;;;;;;;8.73;2.95;;;;;;;30.39;29.38;100922.34;5089609;28;20028;-70
2021/07/22 10:48:28;;;;;;;8.45;3.10;;;;;;;30.29;29.23;100924.97;5089960;28;20377;-70
2021/07/22 10:50:54;;;;;;;8.35;3.25;;;;;;;30.17;29.57;100918.81;5089639;28;20048;-70
2021/07/22 10:53:54;;;;;;;12.67;3.83;;;;;;;29.66;30.55;100915.84;5089879;28;20032;-70
2021/07/22 10:56:22;;;;;;;11.68;3.45;;;;;;;29.74;31.14;100909.84;5087953;28;20368;-71
2021/07/22 10:58:55;;;;;;;10.15;3.10;;;;;;;30.10;30.58;100922.13;5089545;28;20025;-70
2021/07/22 11:01:42;;;;;;;13.10;3.83;;;;;;;30.17;29.45;100918.81;5089313;28;20032;-70
2021/07/22 11:04:08;;;;;;;9.85;3.40;;;;;;;29.77;30.41;100920.31;5089663;28;20024;-71
2021/07/22 11:06:58;;;;;;;7.57;2.90;;;;;;;29.12;31.02;100913.00;5089787;28;20184;-72
2021/07/22 11:09:50;;;;;;;7.18;4.00;;;;;;;28.22;31.71;100904.66;5089281;28;20020;-70
2021/07/22 11:12:55;;;;;;;11.52;3.13;;;;;;;27.50;32.73;100915.22;5089300;28;20024;-70
2021/07/22 11:15:46;;;;;;;9.77;3.17;;;;;;;26.93;33.90;100912.97;5045904;28;20037;-69
2021/07/22 11:18:40;;;;;;;8.68;3.13;;;;;;;26.35;34.76;100913.34;5043479;28;20454;-70
2021/07/22 11:21:06;;;;;;;12.27;3.58;;;;;;;25.81;35.81;100910.63;5026952;28;20049;-70